sensor_id;sensor_type;location;lat;lon;timestamp;temperature;humidity
23783;DHT22;12071;50.850;4.446;2023-02-13T00:01:35;6.10;9.80
23783;DHT22;12071;50.850;4.446;2023-02-13T00:04:01;6.20;1.00
23783;DHT22;12071;50.850;4.446;2023-02-13T00:06:26;6.10;1.00
23783;DHT22;12071;50.850;4.446;2023-02-13T00:08:52;5.90;26.40
23783;DHT22;12071;50.850;4.446;2023-02-13T00:11:18;5.70;50.50
23783;DHT22;12071;50.850;4.446;2023-02-13T00:13:45;5.60;99.90
23783;DHT22;12071;50.850;4.446;2023-02-13T00:16:10;5.70;99.90
23783;DHT22;12071;50.850;4.446;2023-02-13T00:18:37;5.80;85.70
23783;DHT22;12071;50.850;4.446;2023-02-13T00:21:11;5.70;41.50
23783;DHT22;12071;50.850;4.446;2023-02-13T00:23:38;5.80;17.00
23783;DHT22;12071;50.850;4.446;2023-02-13T00:26:15;5.70;1.00
23783;DHT22;12071;50.850;4.446;2023-02-13T00:28:41;5.40;47.70
23783;DHT22;12071;50.850;4.446;2023-02-13T00:31:09;5.50;94.00
23783;DHT22;12071;50.850;4.446;2023-02-13T00:33:35;5.60;63.60
23783;DHT22;12071;50.850;4.446;2023-02-13T00:36:21;5.60;29.50
23783;DHT22;12071;50.850;4.446;2023-02-13T00:38:47;5.40;62.60
23783;DHT22;12071;50.850;4.446;2023-02-13T00:41:14;5.60;40.10
23783;DHT22;12071;50.850;4.446;2023-02-13T00:43:42;5.60;8.10
23783;DHT22;12071;50.850;4.446;2023-02-13T00:46:07;5.50;1.00
23783;DHT22;12071;50.850;4.446;2023-02-13T00:48:33;5.40;45.20
23783;DHT22;12071;50.850;4.446;2023-02-13T00:50:59;5.50;10.40
23783;DHT22;12071;50.850;4.446;2023-02-13T00:53:25;5.70;1.00
23783;DHT22;12071;50.850;4.446;2023-02-13T00:55:51;5.60;1.00
23783;DHT22;12071;50.850;4.446;2023-02-13T00:58:18;5.50;1.00
23783;DHT22;12071;50.850;4.446;2023-02-13T01:00:43;5.30;1.00
23783;DHT22;12071;50.850;4.446;2023-02-13T01:03:12;5.20;30.00
23783;DHT22;12071;50.850;4.446;2023-02-13T01:05:37;5.30;40.60
23783;DHT22;12071;50.850;4.446;2023-02-13T01:08:03;5.50;1.00
23783;DHT22;12071;50.850;4.446;2023-02-13T01:10:28;5.50;1.00
23783;DHT22;12071;50.850;4.446;2023-02-13T01:12:54;5.20;1.00
23783;DHT22;12071;50.850;4.446;2023-02-13T01:15:20;5.10;31.50
23783;DHT22;12071;50.850;4.446;2023-02-13T01:17:46;5.20;44.00
23783;DHT22;12071;50.850;4.446;2023-02-13T01:20:12;5.20;1.00
23783;DHT22;12071;50.850;4.446;2023-02-13T01:22:38;5.10;17.50
23783;DHT22;12071;50.850;4.446;2023-02-13T01:25:04;4.90;43.10
23783;DHT22;12071;50.850;4.446;2023-02-13T01:27:31;4.90;56.40
23783;DHT22;12071;50.850;4.446;2023-02-13T01:29:57;5.10;39.10
23783;DHT22;12071;50.850;4.446;2023-02-13T01:32:23;5.00;16.20
23783;DHT22;12071;50.850;4.446;2023-02-13T01:34:48;5.10;10.70
23783;DHT22;12071;50.850;4.446;2023-02-13T01:37:14;5.10;5.50
23783;DHT22;12071;50.850;4.446;2023-02-13T01:39:40;4.80;1.00
23783;DHT22;12071;50.850;4.446;2023-02-13T01:42:21;4.90;39.70
23783;DHT22;12071;50.850;4.446;2023-02-13T01:44:50;5.00;23.40
23783;DHT22;12071;50.850;4.446;2023-02-13T01:47:22;4.90;1.00
23783;DHT22;12071;50.850;4.446;2023-02-13T01:49:52;4.80;1.00
23783;DHT22;12071;50.850;4.446;2023-02-13T01:52:19;4.70;25.70
23783;DHT22;12071;50.850;4.446;2023-02-13T01:54:45;4.60;58.80
23783;DHT22;12071;50.850;4.446;2023-02-13T01:57:20;4.90;49.40
23783;DHT22;12071;50.850;4.446;2023-02-13T01:59:50;4.90;1.00
23783;DHT22;12071;50.850;4.446;2023-02-13T02:02:18;5.00;1.00
23783;DHT22;12071;50.850;4.446;2023-02-13T02:04:44;5.00;1.00
23783;DHT22;12071;50.850;4.446;2023-02-13T02:07:16;4.80;1.00
23783;DHT22;12071;50.850;4.446;2023-02-13T02:09:43;4.70;1.00
23783;DHT22;12071;50.850;4.446;2023-02-13T02:14:54;4.60;1.00
23783;DHT22;12071;50.850;4.446;2023-02-13T02:17:23;4.70;1.00
23783;DHT22;12071;50.850;4.446;2023-02-13T02:32:01;4.60;1.00
23783;DHT22;12071;50.850;4.446;2023-02-13T02:42:53;4.60;1.00
23783;DHT22;12071;50.850;4.446;2023-02-13T02:48:31;4.50;1.00
23783;DHT22;12071;50.850;4.446;2023-02-13T02:54:08;4.50;1.00
23783;DHT22;12071;50.850;4.446;2023-02-13T02:56:57;4.30;1.00
23783;DHT22;12071;50.850;4.446;2023-02-13T02:59:26;4.30;1.00
23783;DHT22;12071;50.850;4.446;2023-02-13T03:02:11;4.40;1.00
23783;DHT22;12071;50.850;4.446;2023-02-13T03:04:56;4.30;1.00
23783;DHT22;12071;50.850;4.446;2023-02-13T03:07:42;4.10;1.00
23783;DHT22;12071;50.850;4.446;2023-02-13T03:10:12;4.00;29.50
23783;DHT22;12071;50.850;4.446;2023-02-13T03:13:15;3.90;69.70
23783;DHT22;12071;50.850;4.446;2023-02-13T03:15:47;4.20;37.20
23783;DHT22;12071;50.850;4.446;2023-02-13T03:18:36;4.00;20.00
23783;DHT22;12071;50.850;4.446;2023-02-13T03:21:38;4.10;1.00
23783;DHT22;12071;50.850;4.446;2023-02-13T03:30:25;3.80;1.00
23783;DHT22;12071;50.850;4.446;2023-02-13T03:38:43;3.80;74.30
23783;DHT22;12071;50.850;4.446;2023-02-13T03:41:29;4.00;20.30
23783;DHT22;12071;50.850;4.446;2023-02-13T03:45:20;3.70;29.90
23783;DHT22;12071;50.850;4.446;2023-02-13T03:47:35;3.60;99.90
23783;DHT22;12071;50.850;4.446;2023-02-13T03:50:02;3.70;99.90
23783;DHT22;12071;50.850;4.446;2023-02-13T03:52:46;3.60;99.90
23783;DHT22;12071;50.850;4.446;2023-02-13T03:55:16;3.50;99.90
23783;DHT22;12071;50.850;4.446;2023-02-13T03:58:08;3.50;99.90
23783;DHT22;12071;50.850;4.446;2023-02-13T04:00:56;3.80;99.90
23783;DHT22;12071;50.850;4.446;2023-02-13T04:03:48;4.00;94.30
23783;DHT22;12071;50.850;4.446;2023-02-13T04:09:05;4.00;1.00
23783;DHT22;12071;50.850;4.446;2023-02-13T04:11:52;4.00;33.10
23783;DHT22;12071;50.850;4.446;2023-02-13T04:14:23;3.90;35.20
23783;DHT22;12071;50.850;4.446;2023-02-13T04:16:53;3.90;24.20
23783;DHT22;12071;50.850;4.446;2023-02-13T04:19:21;3.70;92.10
23783;DHT22;12071;50.850;4.446;2023-02-13T04:21:54;3.80;99.90
23783;DHT22;12071;50.850;4.446;2023-02-13T04:24:20;3.70;99.90
23783;DHT22;12071;50.850;4.446;2023-02-13T04:26:46;3.70;99.90
23783;DHT22;12071;50.850;4.446;2023-02-13T04:29:12;3.80;99.90
23783;DHT22;12071;50.850;4.446;2023-02-13T04:31:37;3.80;99.90
23783;DHT22;12071;50.850;4.446;2023-02-13T04:34:04;3.50;99.90
23783;DHT22;12071;50.850;4.446;2023-02-13T04:36:30;3.60;99.90
23783;DHT22;12071;50.850;4.446;2023-02-13T04:38:55;3.70;99.90
23783;DHT22;12071;50.850;4.446;2023-02-13T04:41:21;3.60;99.90
23783;DHT22;12071;50.850;4.446;2023-02-13T04:43:47;3.50;99.90
23783;DHT22;12071;50.850;4.446;2023-02-13T04:46:13;3.50;99.90
23783;DHT22;12071;50.850;4.446;2023-02-13T04:48:39;3.60;99.90
23783;DHT22;12071;50.850;4.446;2023-02-13T04:51:05;3.60;99.90
23783;DHT22;12071;50.850;4.446;2023-02-13T04:53:30;3.70;99.90
23783;DHT22;12071;50.850;4.446;2023-02-13T04:55:56;3.60;99.90
23783;DHT22;12071;50.850;4.446;2023-02-13T04:58:21;3.50;99.90
23783;DHT22;12071;50.850;4.446;2023-02-13T05:00:47;3.60;99.90
23783;DHT22;12071;50.850;4.446;2023-02-13T05:03:12;3.70;99.90
23783;DHT22;12071;50.850;4.446;2023-02-13T05:05:39;3.70;99.90
23783;DHT22;12071;50.850;4.446;2023-02-13T05:08:06;3.60;99.90
23783;DHT22;12071;50.850;4.446;2023-02-13T05:10:32;3.40;99.90
23783;DHT22;12071;50.850;4.446;2023-02-13T05:12:58;3.40;99.90
23783;DHT22;12071;50.850;4.446;2023-02-13T05:15:24;3.40;99.90
23783;DHT22;12071;50.850;4.446;2023-02-13T05:17:50;3.30;99.90
23783;DHT22;12071;50.850;4.446;2023-02-13T05:20:16;3.10;99.90
23783;DHT22;12071;50.850;4.446;2023-02-13T05:22:49;3.00;99.90
23783;DHT22;12071;50.850;4.446;2023-02-13T05:25:35;3.00;99.90
23783;DHT22;12071;50.850;4.446;2023-02-13T05:28:02;3.00;99.90
23783;DHT22;12071;50.850;4.446;2023-02-13T05:30:27;3.40;99.90
23783;DHT22;12071;50.850;4.446;2023-02-13T05:32:53;3.50;99.90
23783;DHT22;12071;50.850;4.446;2023-02-13T05:35:23;3.40;99.90
23783;DHT22;12071;50.850;4.446;2023-02-13T05:37:49;3.50;99.90
23783;DHT22;12071;50.850;4.446;2023-02-13T05:40:15;3.40;99.90
23783;DHT22;12071;50.850;4.446;2023-02-13T05:42:41;3.20;99.90
23783;DHT22;12071;50.850;4.446;2023-02-13T05:45:08;3.10;99.90
23783;DHT22;12071;50.850;4.446;2023-02-13T05:47:34;3.00;99.90
23783;DHT22;12071;50.850;4.446;2023-02-13T05:49:59;3.00;99.90
23783;DHT22;12071;50.850;4.446;2023-02-13T05:52:25;3.10;99.90
23783;DHT22;12071;50.850;4.446;2023-02-13T05:54:51;3.00;99.90
23783;DHT22;12071;50.850;4.446;2023-02-13T05:57:17;2.80;99.90
23783;DHT22;12071;50.850;4.446;2023-02-13T05:59:42;2.90;99.90
23783;DHT22;12071;50.850;4.446;2023-02-13T06:02:08;3.20;99.90
23783;DHT22;12071;50.850;4.446;2023-02-13T06:04:33;3.40;99.90
23783;DHT22;12071;50.850;4.446;2023-02-13T06:06:59;3.50;99.90
23783;DHT22;12071;50.850;4.446;2023-02-13T06:09:24;3.40;99.90
23783;DHT22;12071;50.850;4.446;2023-02-13T06:11:50;3.50;99.90
23783;DHT22;12071;50.850;4.446;2023-02-13T06:14:16;3.40;99.90
23783;DHT22;12071;50.850;4.446;2023-02-13T06:16:41;3.50;99.90
23783;DHT22;12071;50.850;4.446;2023-02-13T06:19:07;3.40;99.90
23783;DHT22;12071;50.850;4.446;2023-02-13T06:21:33;3.00;99.90
23783;DHT22;12071;50.850;4.446;2023-02-13T06:24:06;2.90;99.90
23783;DHT22;12071;50.850;4.446;2023-02-13T06:26:32;2.90;99.90
23783;DHT22;12071;50.850;4.446;2023-02-13T06:28:58;2.90;99.90
23783;DHT22;12071;50.850;4.446;2023-02-13T06:31:24;3.10;99.90
23783;DHT22;12071;50.850;4.446;2023-02-13T06:33:49;2.90;99.90
23783;DHT22;12071;50.850;4.446;2023-02-13T06:36:15;2.80;99.90
23783;DHT22;12071;50.850;4.446;2023-02-13T06:38:40;2.60;99.90
23783;DHT22;12071;50.850;4.446;2023-02-13T06:41:07;2.80;99.90
23783;DHT22;12071;50.850;4.446;2023-02-13T06:43:33;2.80;99.90
23783;DHT22;12071;50.850;4.446;2023-02-13T06:45:58;2.50;99.90
23783;DHT22;12071;50.850;4.446;2023-02-13T06:48:24;2.20;99.90
23783;DHT22;12071;50.850;4.446;2023-02-13T06:50:50;2.60;99.90
23783;DHT22;12071;50.850;4.446;2023-02-13T06:53:18;2.60;99.90
23783;DHT22;12071;50.850;4.446;2023-02-13T06:55:52;2.80;99.90
23783;DHT22;12071;50.850;4.446;2023-02-13T06:58:21;2.50;99.90
23783;DHT22;12071;50.850;4.446;2023-02-13T07:00:47;2.40;99.90
23783;DHT22;12071;50.850;4.446;2023-02-13T07:03:14;2.50;99.90
23783;DHT22;12071;50.850;4.446;2023-02-13T07:05:41;2.50;99.90
23783;DHT22;12071;50.850;4.446;2023-02-13T07:08:08;2.70;99.90
23783;DHT22;12071;50.850;4.446;2023-02-13T07:10:37;2.60;99.90
23783;DHT22;12071;50.850;4.446;2023-02-13T07:13:03;2.80;99.90
23783;DHT22;12071;50.850;4.446;2023-02-13T07:15:29;3.00;99.90
23783;DHT22;12071;50.850;4.446;2023-02-13T07:17:55;3.20;99.90
23783;DHT22;12071;50.850;4.446;2023-02-13T07:20:22;3.40;99.90
23783;DHT22;12071;50.850;4.446;2023-02-13T07:22:47;3.30;99.90
23783;DHT22;12071;50.850;4.446;2023-02-13T07:25:14;3.20;99.90
23783;DHT22;12071;50.850;4.446;2023-02-13T07:27:39;3.00;99.90
23783;DHT22;12071;50.850;4.446;2023-02-13T07:30:07;2.90;99.90
23783;DHT22;12071;50.850;4.446;2023-02-13T07:32:32;3.00;99.90
23783;DHT22;12071;50.850;4.446;2023-02-13T07:34:58;3.00;99.90
23783;DHT22;12071;50.850;4.446;2023-02-13T07:37:24;3.00;99.90
23783;DHT22;12071;50.850;4.446;2023-02-13T07:39:51;3.20;99.90
23783;DHT22;12071;50.850;4.446;2023-02-13T07:42:17;3.40;99.90
23783;DHT22;12071;50.850;4.446;2023-02-13T07:44:42;3.50;99.90
23783;DHT22;12071;50.850;4.446;2023-02-13T07:47:08;3.60;99.90
23783;DHT22;12071;50.850;4.446;2023-02-13T07:49:33;3.60;99.90
23783;DHT22;12071;50.850;4.446;2023-02-13T07:52:01;3.60;99.90
23783;DHT22;12071;50.850;4.446;2023-02-13T07:54:27;3.70;99.90
23783;DHT22;12071;50.850;4.446;2023-02-13T07:56:52;3.70;99.90
23783;DHT22;12071;50.850;4.446;2023-02-13T07:59:18;3.50;99.90
23783;DHT22;12071;50.850;4.446;2023-02-13T08:01:43;3.30;99.90
23783;DHT22;12071;50.850;4.446;2023-02-13T08:04:09;3.50;99.90
23783;DHT22;12071;50.850;4.446;2023-02-13T08:06:37;3.60;99.90
23783;DHT22;12071;50.850;4.446;2023-02-13T08:09:02;3.60;99.90
23783;DHT22;12071;50.850;4.446;2023-02-13T08:11:46;3.50;99.90
23783;DHT22;12071;50.850;4.446;2023-02-13T08:14:19;3.60;99.90
23783;DHT22;12071;50.850;4.446;2023-02-13T08:16:44;3.60;99.90
23783;DHT22;12071;50.850;4.446;2023-02-13T08:19:10;3.50;99.90
23783;DHT22;12071;50.850;4.446;2023-02-13T08:21:35;3.60;99.90
23783;DHT22;12071;50.850;4.446;2023-02-13T08:24:03;3.70;99.90
23783;DHT22;12071;50.850;4.446;2023-02-13T08:26:30;3.70;99.90
23783;DHT22;12071;50.850;4.446;2023-02-13T08:28:56;3.70;99.90
23783;DHT22;12071;50.850;4.446;2023-02-13T08:31:21;3.70;99.90
23783;DHT22;12071;50.850;4.446;2023-02-13T08:33:47;3.80;99.90
23783;DHT22;12071;50.850;4.446;2023-02-13T08:36:13;3.90;99.90
23783;DHT22;12071;50.850;4.446;2023-02-13T08:38:38;4.00;99.90
23783;DHT22;12071;50.850;4.446;2023-02-13T08:41:04;4.10;99.90
23783;DHT22;12071;50.850;4.446;2023-02-13T08:43:29;4.30;99.90
23783;DHT22;12071;50.850;4.446;2023-02-13T08:45:59;4.40;99.90
23783;DHT22;12071;50.850;4.446;2023-02-13T08:48:26;4.50;99.90
23783;DHT22;12071;50.850;4.446;2023-02-13T08:50:52;4.60;99.90
23783;DHT22;12071;50.850;4.446;2023-02-13T08:53:17;4.80;99.90
23783;DHT22;12071;50.850;4.446;2023-02-13T08:55:54;4.80;99.90
23783;DHT22;12071;50.850;4.446;2023-02-13T08:58:20;5.00;99.90
23783;DHT22;12071;50.850;4.446;2023-02-13T09:00:45;5.20;99.90
23783;DHT22;12071;50.850;4.446;2023-02-13T09:03:11;5.40;99.90
23783;DHT22;12071;50.850;4.446;2023-02-13T09:05:37;5.50;99.90
23783;DHT22;12071;50.850;4.446;2023-02-13T09:08:04;5.40;99.90
23783;DHT22;12071;50.850;4.446;2023-02-13T09:10:31;5.50;99.90
23783;DHT22;12071;50.850;4.446;2023-02-13T09:12:57;5.50;99.90
23783;DHT22;12071;50.850;4.446;2023-02-13T09:15:23;5.60;99.90
23783;DHT22;12071;50.850;4.446;2023-02-13T09:17:48;5.80;99.90
23783;DHT22;12071;50.850;4.446;2023-02-13T09:20:14;5.90;99.90
23783;DHT22;12071;50.850;4.446;2023-02-13T09:22:40;6.00;99.90
23783;DHT22;12071;50.850;4.446;2023-02-13T09:25:06;6.20;99.90
23783;DHT22;12071;50.850;4.446;2023-02-13T09:27:33;6.50;99.90
23783;DHT22;12071;50.850;4.446;2023-02-13T09:29:59;6.70;99.90
23783;DHT22;12071;50.850;4.446;2023-02-13T09:32:25;6.70;99.90
23783;DHT22;12071;50.850;4.446;2023-02-13T09:34:51;6.90;99.90
23783;DHT22;12071;50.850;4.446;2023-02-13T09:37:16;6.90;99.90
23783;DHT22;12071;50.850;4.446;2023-02-13T09:39:42;7.00;99.90
23783;DHT22;12071;50.850;4.446;2023-02-13T09:42:21;7.10;99.90
23783;DHT22;12071;50.850;4.446;2023-02-13T09:44:54;7.40;99.90
23783;DHT22;12071;50.850;4.446;2023-02-13T09:47:35;7.70;99.90
23783;DHT22;12071;50.850;4.446;2023-02-13T09:50:06;8.10;99.90
23783;DHT22;12071;50.850;4.446;2023-02-13T09:52:37;8.40;99.90
23783;DHT22;12071;50.850;4.446;2023-02-13T09:58:36;8.60;99.90
23783;DHT22;12071;50.850;4.446;2023-02-13T10:01:04;8.80;88.90
23783;DHT22;12071;50.850;4.446;2023-02-13T10:03:43;8.80;33.20
23783;DHT22;12071;50.850;4.446;2023-02-13T10:06:25;9.00;4.30
23783;DHT22;12071;50.850;4.446;2023-02-13T10:09:14;9.20;1.00
23783;DHT22;12071;50.850;4.446;2023-02-13T10:12:03;9.20;1.00
23783;DHT22;12071;50.850;4.446;2023-02-13T10:17:34;9.30;99.90
23783;DHT22;12071;50.850;4.446;2023-02-13T10:20:09;9.40;99.90
23783;DHT22;12071;50.850;4.446;2023-02-13T10:22:46;9.60;99.90
23783;DHT22;12071;50.850;4.446;2023-02-13T10:25:29;9.60;99.90
23783;DHT22;12071;50.850;4.446;2023-02-13T10:28:09;9.90;99.90
23783;DHT22;12071;50.850;4.446;2023-02-13T10:30:51;9.90;99.90
23783;DHT22;12071;50.850;4.446;2023-02-13T10:36:33;10.10;1.00
23783;DHT22;12071;50.850;4.446;2023-02-13T10:44:33;10.60;99.90
23783;DHT22;12071;50.850;4.446;2023-02-13T11:03:22;11.20;27.00
23783;DHT22;12071;50.850;4.446;2023-02-13T11:05:49;11.40;1.00
23783;DHT22;12071;50.850;4.446;2023-02-13T11:08:25;11.10;1.00
23783;DHT22;12071;50.850;4.446;2023-02-13T11:10:51;11.20;1.00
23783;DHT22;12071;50.850;4.446;2023-02-13T11:13:21;11.60;99.90
23783;DHT22;12071;50.850;4.446;2023-02-13T11:16:04;11.60;99.90
23783;DHT22;12071;50.850;4.446;2023-02-13T11:18:34;11.60;99.90
23783;DHT22;12071;50.850;4.446;2023-02-13T11:21:13;11.80;97.10
23783;DHT22;12071;50.850;4.446;2023-02-13T11:23:44;11.40;13.80
23783;DHT22;12071;50.850;4.446;2023-02-13T11:28:59;12.10;1.00
23783;DHT22;12071;50.850;4.446;2023-02-13T11:31:44;12.30;99.90
23783;DHT22;12071;50.850;4.446;2023-02-13T11:36:51;12.40;25.80
23783;DHT22;12071;50.850;4.446;2023-02-13T11:39:25;12.10;30.60
23783;DHT22;12071;50.850;4.446;2023-02-13T11:41:51;12.30;1.00
23783;DHT22;12071;50.850;4.446;2023-02-13T11:44:31;12.30;1.00
23783;DHT22;12071;50.850;4.446;2023-02-13T11:46:59;12.10;1.00
23783;DHT22;12071;50.850;4.446;2023-02-13T11:49:27;11.90;1.00
23783;DHT22;12071;50.850;4.446;2023-02-13T11:51:56;12.40;1.00
23783;DHT22;12071;50.850;4.446;2023-02-13T11:54:32;12.70;1.00
23783;DHT22;12071;50.850;4.446;2023-02-13T11:57:16;12.90;99.90
23783;DHT22;12071;50.850;4.446;2023-02-13T11:59:44;12.80;99.90
23783;DHT22;12071;50.850;4.446;2023-02-13T12:02:23;12.70;99.90
23783;DHT22;12071;50.850;4.446;2023-02-13T12:04:51;13.10;99.90
23783;DHT22;12071;50.850;4.446;2023-02-13T12:07:30;13.30;99.90
23783;DHT22;12071;50.850;4.446;2023-02-13T12:12:56;13.30;84.80
23783;DHT22;12071;50.850;4.446;2023-02-13T12:15:32;13.50;1.00
23783;DHT22;12071;50.850;4.446;2023-02-13T12:26:37;13.30;1.00
23783;DHT22;12071;50.850;4.446;2023-02-13T12:46:31;13.80;1.00
23783;DHT22;12071;50.850;4.446;2023-02-13T12:51:42;14.00;99.90
23783;DHT22;12071;50.850;4.446;2023-02-13T12:54:41;13.80;99.90
23783;DHT22;12071;50.850;4.446;2023-02-13T13:01:00;14.00;99.90
23783;DHT22;12071;50.850;4.446;2023-02-13T13:03:04;13.90;99.90
23783;DHT22;12071;50.850;4.446;2023-02-13T13:08:36;14.30;1.00
23783;DHT22;12071;50.850;4.446;2023-02-13T13:11:32;14.50;99.90
23783;DHT22;12071;50.850;4.446;2023-02-13T13:19:39;15.10;99.90
23783;DHT22;12071;50.850;4.446;2023-02-13T13:22:18;15.60;99.90
23783;DHT22;12071;50.850;4.446;2023-02-13T13:27:29;15.70;22.40
23783;DHT22;12071;50.850;4.446;2023-02-13T13:30:23;15.40;1.00
23783;DHT22;12071;50.850;4.446;2023-02-13T13:32:53;15.60;1.00
23783;DHT22;12071;50.850;4.446;2023-02-13T13:35:21;15.30;1.00
23783;DHT22;12071;50.850;4.446;2023-02-13T13:41:01;15.60;1.00
23783;DHT22;12071;50.850;4.446;2023-02-13T13:54:49;15.30;1.00
23783;DHT22;12071;50.850;4.446;2023-02-13T13:58:03;15.00;1.00
23783;DHT22;12071;50.850;4.446;2023-02-13T14:02:50;14.90;1.00
23783;DHT22;12071;50.850;4.446;2023-02-13T14:05:26;15.10;1.00
23783;DHT22;12071;50.850;4.446;2023-02-13T14:08:00;15.60;1.00
23783;DHT22;12071;50.850;4.446;2023-02-13T14:31:21;16.30;1.00
23783;DHT22;12071;50.850;4.446;2023-02-13T14:36:38;17.20;1.00
23783;DHT22;12071;50.850;4.446;2023-02-13T14:39:29;17.40;99.90
23783;DHT22;12071;50.850;4.446;2023-02-13T14:41:58;18.50;99.90
23783;DHT22;12071;50.850;4.446;2023-02-13T14:44:48;19.60;99.90
23783;DHT22;12071;50.850;4.446;2023-02-13T14:47:19;20.60;99.90
23783;DHT22;12071;50.850;4.446;2023-02-13T14:49:46;22.10;99.90
23783;DHT22;12071;50.850;4.446;2023-02-13T14:52:23;23.00;99.90
23783;DHT22;12071;50.850;4.446;2023-02-13T14:55:06;23.00;99.90
23783;DHT22;12071;50.850;4.446;2023-02-13T14:57:37;23.00;99.90
23783;DHT22;12071;50.850;4.446;2023-02-13T15:00:18;23.00;99.90
23783;DHT22;12071;50.850;4.446;2023-02-13T15:02:50;24.00;99.90
23783;DHT22;12071;50.850;4.446;2023-02-13T15:05:18;24.40;99.90
23783;DHT22;12071;50.850;4.446;2023-02-13T15:07:51;23.90;99.90
23783;DHT22;12071;50.850;4.446;2023-02-13T15:10:43;23.30;99.90
23783;DHT22;12071;50.850;4.446;2023-02-13T15:13:25;22.70;99.90
23783;DHT22;12071;50.850;4.446;2023-02-13T15:15:55;22.30;99.90
23783;DHT22;12071;50.850;4.446;2023-02-13T15:18:28;22.30;99.90
23783;DHT22;12071;50.850;4.446;2023-02-13T15:20:57;21.80;99.90
23783;DHT22;12071;50.850;4.446;2023-02-13T15:23:28;21.90;99.90
23783;DHT22;12071;50.850;4.446;2023-02-13T15:26:00;21.80;99.90
23783;DHT22;12071;50.850;4.446;2023-02-13T15:28:26;21.20;99.90
23783;DHT22;12071;50.850;4.446;2023-02-13T15:30:57;20.50;99.90
23783;DHT22;12071;50.850;4.446;2023-02-13T15:33:30;20.50;99.90
23783;DHT22;12071;50.850;4.446;2023-02-13T15:36:02;20.30;99.90
23783;DHT22;12071;50.850;4.446;2023-02-13T15:38:29;21.10;99.90
23783;DHT22;12071;50.850;4.446;2023-02-13T15:41:02;22.10;99.90
23783;DHT22;12071;50.850;4.446;2023-02-13T15:43:33;23.60;99.90
23783;DHT22;12071;50.850;4.446;2023-02-13T15:46:02;24.60;99.90
23783;DHT22;12071;50.850;4.446;2023-02-13T15:48:31;24.90;99.90
23783;DHT22;12071;50.850;4.446;2023-02-13T15:50:58;25.50;99.90
23783;DHT22;12071;50.850;4.446;2023-02-13T15:53:24;25.90;99.90
23783;DHT22;12071;50.850;4.446;2023-02-13T15:56:01;26.40;99.90
23783;DHT22;12071;50.850;4.446;2023-02-13T15:58:31;26.10;99.90
23783;DHT22;12071;50.850;4.446;2023-02-13T16:01:06;25.20;99.90
23783;DHT22;12071;50.850;4.446;2023-02-13T16:03:33;24.60;99.90
23783;DHT22;12071;50.850;4.446;2023-02-13T16:05:59;24.40;99.90
23783;DHT22;12071;50.850;4.446;2023-02-13T16:08:29;23.90;99.90
23783;DHT22;12071;50.850;4.446;2023-02-13T16:17:04;23.20;99.90
23783;DHT22;12071;50.850;4.446;2023-02-13T16:19:52;23.00;99.90
23783;DHT22;12071;50.850;4.446;2023-02-13T16:25:37;21.60;99.90
23783;DHT22;12071;50.850;4.446;2023-02-13T16:28:20;20.60;99.90
23783;DHT22;12071;50.850;4.446;2023-02-13T16:30:59;19.30;99.90
23783;DHT22;12071;50.850;4.446;2023-02-13T16:33:35;18.20;84.20
23783;DHT22;12071;50.850;4.446;2023-02-13T16:38:38;16.40;70.90
23783;DHT22;12071;50.850;4.446;2023-02-13T16:43:57;15.70;1.00
23783;DHT22;12071;50.850;4.446;2023-02-13T16:46:24;15.30;99.90
23783;DHT22;12071;50.850;4.446;2023-02-13T16:48:59;15.00;99.90
23783;DHT22;12071;50.850;4.446;2023-02-13T16:54:03;14.40;99.90
23783;DHT22;12071;50.850;4.446;2023-02-13T16:57:13;14.20;99.90
23783;DHT22;12071;50.850;4.446;2023-02-13T17:02:19;13.70;1.00
23783;DHT22;12071;50.850;4.446;2023-02-13T17:04:52;13.50;1.00
23783;DHT22;12071;50.850;4.446;2023-02-13T17:07:19;13.30;1.00
23783;DHT22;12071;50.850;4.446;2023-02-13T17:09:51;13.20;1.00
23783;DHT22;12071;50.850;4.446;2023-02-13T17:12:18;13.20;1.00
23783;DHT22;12071;50.850;4.446;2023-02-13T17:14:44;13.10;28.00
23783;DHT22;12071;50.850;4.446;2023-02-13T17:17:12;13.00;85.60
23783;DHT22;12071;50.850;4.446;2023-02-13T17:19:38;12.80;99.90
23783;DHT22;12071;50.850;4.446;2023-02-13T17:22:03;12.70;99.90
23783;DHT22;12071;50.850;4.446;2023-02-13T17:24:29;12.60;99.90
23783;DHT22;12071;50.850;4.446;2023-02-13T17:26:55;12.40;99.90
23783;DHT22;12071;50.850;4.446;2023-02-13T17:29:21;12.30;1.00
23783;DHT22;12071;50.850;4.446;2023-02-13T17:31:47;12.20;1.00
23783;DHT22;12071;50.850;4.446;2023-02-13T17:34:14;12.10;44.40
23783;DHT22;12071;50.850;4.446;2023-02-13T17:36:40;12.00;99.90
23783;DHT22;12071;50.850;4.446;2023-02-13T17:39:05;11.90;99.90
23783;DHT22;12071;50.850;4.446;2023-02-13T17:41:31;11.90;99.90
23783;DHT22;12071;50.850;4.446;2023-02-13T17:43:57;11.90;99.90
23783;DHT22;12071;50.850;4.446;2023-02-13T17:46:22;11.80;1.00
23783;DHT22;12071;50.850;4.446;2023-02-13T17:48:48;11.70;1.00
23783;DHT22;12071;50.850;4.446;2023-02-13T17:51:13;11.40;59.10
23783;DHT22;12071;50.850;4.446;2023-02-13T17:53:39;11.30;99.90
23783;DHT22;12071;50.850;4.446;2023-02-13T17:56:05;11.20;1.00
23783;DHT22;12071;50.850;4.446;2023-02-13T17:58:30;11.10;91.00
23783;DHT22;12071;50.850;4.446;2023-02-13T18:00:56;11.00;99.90
23783;DHT22;12071;50.850;4.446;2023-02-13T18:03:22;11.00;99.90
23783;DHT22;12071;50.850;4.446;2023-02-13T18:05:49;10.90;1.00
23783;DHT22;12071;50.850;4.446;2023-02-13T18:08:15;10.80;1.00
23783;DHT22;12071;50.850;4.446;2023-02-13T18:10:40;10.70;92.50
23783;DHT22;12071;50.850;4.446;2023-02-13T18:13:06;10.60;99.90
23783;DHT22;12071;50.850;4.446;2023-02-13T18:15:40;10.60;99.90
23783;DHT22;12071;50.850;4.446;2023-02-13T18:18:06;10.40;1.00
23783;DHT22;12071;50.850;4.446;2023-02-13T18:20:32;10.40;1.00
23783;DHT22;12071;50.850;4.446;2023-02-13T18:22:57;10.30;99.90
23783;DHT22;12071;50.850;4.446;2023-02-13T18:25:24;10.20;99.90
23783;DHT22;12071;50.850;4.446;2023-02-13T18:27:52;10.20;99.90
23783;DHT22;12071;50.850;4.446;2023-02-13T18:30:20;10.20;99.90
23783;DHT22;12071;50.850;4.446;2023-02-13T18:32:50;10.30;99.90
23783;DHT22;12071;50.850;4.446;2023-02-13T18:35:17;10.10;99.90
23783;DHT22;12071;50.850;4.446;2023-02-13T18:37:43;10.00;1.00
23783;DHT22;12071;50.850;4.446;2023-02-13T18:40:11;9.80;99.90
23783;DHT22;12071;50.850;4.446;2023-02-13T18:42:37;9.70;99.90
23783;DHT22;12071;50.850;4.446;2023-02-13T18:45:03;9.70;1.00
23783;DHT22;12071;50.850;4.446;2023-02-13T18:47:29;9.60;49.30
23783;DHT22;12071;50.850;4.446;2023-02-13T18:49:55;9.60;24.20
23783;DHT22;12071;50.850;4.446;2023-02-13T18:52:20;9.70;35.10
23783;DHT22;12071;50.850;4.446;2023-02-13T18:54:46;9.80;1.00
23783;DHT22;12071;50.850;4.446;2023-02-13T18:57:11;9.70;1.00
23783;DHT22;12071;50.850;4.446;2023-02-13T18:59:37;9.60;8.10
23783;DHT22;12071;50.850;4.446;2023-02-13T19:02:03;9.40;59.10
23783;DHT22;12071;50.850;4.446;2023-02-13T19:04:28;9.20;99.90
23783;DHT22;12071;50.850;4.446;2023-02-13T19:06:54;9.10;99.90
23783;DHT22;12071;50.850;4.446;2023-02-13T19:09:20;9.00;1.00
23783;DHT22;12071;50.850;4.446;2023-02-13T19:11:45;9.00;1.00